Terminal Aerodrome Forecast
Issued by NWS Pendleton, OR

Home | Current Version | Previous Version | Text Only | Print | Product List | Glossary On
Versions: 1 2 3 4 5 6 7 8 9 10 11 12 13 14 15 16 17
000
FTUS46 KPDT 260038 AAA
TAFPDT
TAF AMD
KPDT 260038Z 2601/2624 30012KT P6SM SCT080
     FM260300 26015G25KT P6SM -SHRA BKN050 OVC080
     FM260900 26014G20KT P6SM OVC080
     FM261600 25014G20KT P6SM OVC100
     FM262100 27014KT P6SM FEW070 BKN250=

USA.gov is the U.S. government's official web portal to all federal, state and local government web resources and services.